Meteo Giornale » Osservazioni meteo Italia » Roma Fiumicino

ore: 11:50 - Osservazioni Meteo Roma Fiumicino
Lat. 41° 48' N Lon. 12° 14' E Alt. 2 metri s.l.m.

sereno Europe/Rome

31 °C

Sereno

Temp. 24 Ore

23 °C

33 °C

Sud/Sud-Ovest

13 Km/h

Dew point 20 °C

Umidità 52 %

Visibilità  10 Km

Il sole sorge alle ore 06:10

Il sole tramonta alle ore 20:22

Data e Ora Cielo e Fenomeni T °C DP °C Um. % Pres. hPa Vis. km Vento km/h
Oggi h: 11:50 sereno Sereno 31 20 52 1013 10 S/SO 13
Oggi h: 11:20 sereno Sereno 31 20 52 1013 10 O/SO 14.8
Oggi h: 10:50 sereno Sereno 32 19 46 1013 10 O/SO 11.1
Oggi h: 10:20 sereno Sereno 31 19 48 1013 10 N 5.5
Oggi h: 09:50 sereno Sereno 30 17 45 1013 10 N 5.5
Oggi h: 09:20 sereno Sereno 29 17 48 1013 10 E/NE 13
Oggi h: 08:50 sereno Sereno 28 17 51 1012 10 E/NE 16.7
Oggi h: 08:20 sereno Sereno 27 17 54 1012 10 E 20.3
Oggi h: 07:50 sereno Sereno 26 16 54 1012 10 E/NE 13
Oggi h: 07:20 sereno Sereno 25 16 57 1012 10 E/NE 7.4
Oggi h: 06:50 sereno Sereno 23 17 68 1012 10 E/NE 7.4
Oggi h: 06:20 sereno Sereno 23 16 64 1012 10 N 5.5
Oggi h: 05:50 sereno Sereno 24 17 64 1011 10 E/NE 11.1
Oggi h: 05:20 sereno Sereno 23 16 64 1011 10 N 3.7
Oggi h: 04:50 sereno Sereno 24 16 60 1012 10 E 7.4
Oggi h: 04:20 sereno Sereno 24 16 60 1012 10 N 3.7
Oggi h: 03:50 sereno Sereno 24 16 60 1012 10 NE 9.3
Oggi h: 03:20 sereno Sereno 25 16 57 1011 10 E/NE 13
Oggi h: 02:50 sereno Sereno 25 16 57 1012 10 E/NE 13
Oggi h: 02:20 sereno Sereno 26 16 54 1012 10 E/NE 13
Oggi h: 01:50 sereno Sereno 25 15 53 1012 10 E/NE 7.4
Oggi h: 01:20 sereno Sereno 26 15 50 1012 10 E 11.1
Oggi h: 00:50 sereno Sereno 26 15 50 1012 10 E/NE 11.1
Oggi h: 00:20 sereno Sereno 27 15 47 1012 10 E/NE 13
Ieri h: 23:50 sereno Sereno 26 16 54 1012 10 E/NE 11.1
Ieri h: 23:20 sereno Sereno 24 15 57 1011 10 N 9.3
Ieri h: 22:50 sereno Sereno 25 16 57 1011 10 N 5.5
Ieri h: 22:20 sereno Sereno 26 16 54 1011 10 N/NO 7.4
Ieri h: 21:50 sereno Sereno 26 16 54 1011 10 NO 7.4
Ieri h: 21:20 sereno Sereno 27 15 47 1011 10 N 5.5
Ieri h: 20:50 sereno Sereno 29 15 42 1010 10 N 9.3
Ieri h: 20:20 sereno Sereno 30 15 40 1010 10 E/NE 13
Ieri h: 19:50 sereno Sereno 30 15 40 1010 10 NE 20.3
Ieri h: 19:20 sereno Sereno 30 15 40 1011 10 N/NE 20.3
Ieri h: 18:50 sereno Sereno 30 21 58 1011 10 N 13
Ieri h: 18:20 sereno Sereno 30 23 66 1010 10 O 14.8
Ieri h: 17:50 sereno Sereno 30 25 74 1010 10 O/NO 14.8
Ieri h: 17:20 sereno Sereno 30 25 74 1010 10 O 18.5
Ieri h: 16:50 sereno Sereno 31 25 70 1010 10 O 20.3
Ieri h: 16:20 sereno Sereno 31 24 66 1010 10 O/SO 24
Ieri h: 15:50 sereno Sereno 32 23 59 1010 10 O/SO 20.3
Ieri h: 15:20 sereno Sereno 32 21 52 1010 10 SO 18.5
Ieri h: 14:50 sereno Sereno 32 22 55 1010 10 SO 20.3
Ieri h: 14:20 sereno Sereno 33 21 49 1010 10 SO 18.5
Ieri h: 13:50 sereno Sereno 33 21 49 1011 10 SO 18.5
Ieri h: 13:20 sereno Sereno 33 18 41 1011 10 S/SO 14.8
Ieri h: 12:50 sereno Sereno 33 21 49 1011 10 S/SO 14.8